Time;durP1;ratioP1;P1;durP2;ratioP2;P2;SDS_P1;SDS_P2;PMS_P1;PMS_P2;Temp;Humidity;BMP_temperature;BMP_pressure;BME280_temperature;BME280_humidity;BME280_pressure;Samples;Min_cycle;Max_cycle;Signal;HPM_P1;HPM_P2
2022/06/08 00:31:18;;;;;;;8.57;7.78;;;;;;;;;;4818617;29;20054;-79
2022/06/08 00:34:32;;;;;;;;;;;;;;;;;;;;;
2022/06/08 00:38:34;;;;;;;7.95;7.13;;;;;;;;;;4776588;29;20046;-79
2022/06/08 00:42:40;;;;;;;8.55;7.75;;;;;;;;;;4737511;30;20105;-79
2022/06/08 00:50:01;;;;;;;7.22;6.63;;;;;;;;;;4763679;30;20039;-78
2022/06/08 00:56:56;;;;;;;12.55;7.93;;;;;;;;;;4846205;29;20234;-79
2022/06/08 01:00:07;;;;;;;9.18;8.27;;;;;;;;;;4825536;29;20114;-79
2022/06/08 01:03:59;;;;;;;9.50;8.68;;;;;;;;;;4746525;30;20538;-79
2022/06/08 01:11:59;;;;;;;9.82;8.93;;;;;;;;;;4813004;29;20522;-79
2022/06/08 01:15:04;;;;;;;8.95;7.95;;;;;;;;;;4739978;30;20117;-79
2022/06/08 01:17:32;;;;;;;8.45;7.78;;;;;;;;;;4722527;30;20057;-79
2022/06/08 01:20:01;;;;;;;8.55;7.85;;;;;;;;;;4775734;30;20055;-79
2022/06/08 01:22:33;;;;;;;9.25;7.70;;;;;;;;;;4766932;30;20086;-79
2022/06/08 01:25:01;;;;;;;13.35;8.32;;;;;;;;;;4781539;30;20126;-79
2022/06/08 01:27:42;;;;;;;8.32;7.57;;;;;;;;;;4766111;30;20072;-79
2022/06/08 01:30:21;;;;;;;10.02;7.50;;;;;;;;;;4793132;29;20051;-79
2022/06/08 01:32:57;;;;;;;7.95;6.63;;;;;;;;;;4800838;29;20066;-79
2022/06/08 01:35:35;;;;;;;6.97;6.30;;;;;;;;;;4800506;29;20527;-79
2022/06/08 01:38:12;;;;;;;7.65;6.95;;;;;;;;;;4798578;29;20069;-79
2022/06/08 01:40:52;;;;;;;8.30;6.82;;;;;;;;;;4784754;29;20425;-79
2022/06/08 01:43:20;;;;;;;8.15;7.10;;;;;;;;;;4803670;29;20496;-79
2022/06/08 01:46:06;;;;;;;9.02;7.45;;;;;;;;;;4802268;29;20051;-79
2022/06/08 01:48:36;;;;;;;8.32;7.30;;;;;;;;;;4804029;29;20050;-79
2022/06/08 01:51:04;;;;;;;8.95;7.20;;;;;;;;;;4802913;29;20058;-79
2022/06/08 01:53:59;;;;;;;7.90;7.20;;;;;;;;;;4802851;29;20053;-79
2022/06/08 02:03:16;;;;;;;7.72;7.03;;;;;;;;;;4822244;29;20141;-80
2022/06/08 02:06:01;;;;;;;7.93;7.32;;;;;;;;;;4819961;29;20065;-79
2022/06/08 02:09:43;;;;;;;8.80;7.70;;;;;;;;;;4795340;29;20055;-80
2022/06/08 02:12:59;;;;;;;8.75;7.75;;;;;;;;;;4787786;29;20086;-79
2022/06/08 02:16:34;;;;;;;7.60;7.00;;;;;;;;;;4694344;30;20134;-79
2022/06/08 02:19:51;;;;;;;8.57;7.30;;;;;;;;;;4739371;30;20052;-79
2022/06/08 02:22:52;;;;;;;7.78;7.00;;;;;;;;;;4765856;30;20146;-79
2022/06/08 02:25:36;;;;;;;8.05;7.43;;;;;;;;;;4765454;30;20070;-79
2022/06/08 02:28:07;;;;;;;8.57;7.88;;;;;;;;;;4751152;30;20059;-79
2022/06/08 02:30:39;;;;;;;8.10;7.50;;;;;;;;;;4727460;30;20060;-79
2022/06/08 02:36:02;;;;;;;9.02;7.43;;;;;;;;;;4749251;30;20099;-79
2022/06/08 02:38:37;;;;;;;12.47;7.67;;;;;;;;;;4747293;30;20048;-79
2022/06/08 02:41:09;;;;;;;14.57;8.00;;;;;;;;;;4746820;30;20068;-79
2022/06/08 02:43:54;;;;;;;8.10;7.35;;;;;;;;;;4735865;30;20060;-79
2022/06/08 02:46:55;;;;;;;8.02;6.78;;;;;;;;;;4766725;29;20158;-79
2022/06/08 02:49:36;;;;;;;7.70;7.05;;;;;;;;;;4773867;29;20066;-79
2022/06/08 02:52:12;;;;;;;10.77;7.32;;;;;;;;;;4802016;29;20050;-79
2022/06/08 02:54:40;;;;;;;8.23;7.53;;;;;;;;;;4779646;29;20065;-79
2022/06/08 02:57:31;;;;;;;9.55;7.90;;;;;;;;;;4781141;29;20501;-79
2022/06/08 03:01:12;;;;;;;8.38;7.55;;;;;;;;;;4785058;29;20062;-79
2022/06/08 03:05:14;;;;;;;8.23;7.43;;;;;;;;;;4796155;29;20608;-79
2022/06/08 03:08:22;;;;;;;9.23;8.25;;;;;;;;;;4818617;24;20062;-79
2022/06/08 03:11:43;;;;;;;10.00;8.40;;;;;;;;;;4837279;29;20052;-80
2022/06/08 03:14:35;;;;;;;9.27;8.05;;;;;;;;;;4807263;29;20077;-79
2022/06/08 03:17:31;;;;;;;9.23;8.32;;;;;;;;;;4818388;29;20054;-79
2022/06/08 03:19:59;;;;;;;12.70;8.52;;;;;;;;;;4795214;29;20057;-79
2022/06/08 03:22:28;;;;;;;12.57;7.95;;;;;;;;;;4822783;29;20106;-79
2022/06/08 03:25:01;;;;;;;12.02;8.75;;;;;;;;;;4811530;29;20055;-79
2022/06/08 03:27:30;;;;;;;9.23;8.32;;;;;;;;;;4786236;29;20145;-79
2022/06/08 03:29:58;;;;;;;10.40;8.80;;;;;;;;;;4798656;29;20499;-79
2022/06/08 03:32:32;;;;;;;9.35;8.45;;;;;;;;;;4807749;29;20472;-79
2022/06/08 03:35:00;;;;;;;12.57;9.30;;;;;;;;;;4822200;29;20049;-79
2022/06/08 03:37:27;;;;;;;10.02;8.52;;;;;;;;;;4821221;29;20049;-79
2022/06/08 03:39:57;;;;;;;13.65;8.15;;;;;;;;;;4806466;29;20579;-79
2022/06/08 03:42:24;;;;;;;9.57;8.77;;;;;;;;;;4823156;29;20053;-79
2022/06/08 03:44:52;;;;;;;9.38;8.07;;;;;;;;;;4814816;29;20065;-79
2022/06/08 03:47:21;;;;;;;8.77;7.88;;;;;;;;;;4821813;29;20073;-79
2022/06/08 03:49:50;;;;;;;8.73;7.85;;;;;;;;;;4808833;29;20085;-79
2022/06/08 03:52:19;;;;;;;9.25;8.43;;;;;;;;;;4837084;29;20444;-79
2022/06/08 03:54:49;;;;;;;9.23;8.35;;;;;;;;;;4839936;29;20211;-79
2022/06/08 03:57:17;;;;;;;11.40;8.40;;;;;;;;;;4816163;29;20217;-79
2022/06/08 03:59:45;;;;;;;10.18;9.10;;;;;;;;;;4835284;29;20137;-79
2022/06/08 04:02:13;;;;;;;9.88;8.98;;;;;;;;;;4825076;29;20057;-79
2022/06/08 04:04:43;;;;;;;9.75;8.88;;;;;;;;;;4821207;29;20157;-79
2022/06/08 04:07:12;;;;;;;11.02;9.32;;;;;;;;;;4821768;29;20038;-79
2022/06/08 04:09:43;;;;;;;9.52;8.30;;;;;;;;;;4824777;29;20526;-79
2022/06/08 04:12:11;;;;;;;12.23;9.30;;;;;;;;;;4825115;29;20059;-79
2022/06/08 04:14:40;;;;;;;10.98;9.30;;;;;;;;;;4839074;29;20073;-79
2022/06/08 04:17:11;;;;;;;12.23;9.32;;;;;;;;;;4821919;29;20062;-79
2022/06/08 04:19:39;;;;;;;11.32;8.50;;;;;;;;;;4816347;29;20139;-79
2022/06/08 04:22:07;;;;;;;9.88;8.80;;;;;;;;;;4839445;29;20120;-78
2022/06/08 04:24:38;;;;;;;13.55;10.15;;;;;;;;;;4834230;29;20083;-79
2022/06/08 04:27:05;;;;;;;10.88;9.70;;;;;;;;;;4829318;29;20444;-78
2022/06/08 04:29:39;;;;;;;12.20;10.52;;;;;;;;;;4826609;29;20049;-79
2022/06/08 04:32:09;;;;;;;12.50;10.75;;;;;;;;;;4834615;29;20608;-79
2022/06/08 04:34:38;;;;;;;10.60;9.47;;;;;;;;;;4829393;29;20073;-79
2022/06/08 04:37:06;;;;;;;9.25;8.45;;;;;;;;;;4806552;29;20522;-78
2022/06/08 04:39:41;;;;;;;21.35;9.70;;;;;;;;;;4837999;29;20056;-79
2022/06/08 04:42:14;;;;;;;10.52;8.73;;;;;;;;;;4837616;29;20495;-79
2022/06/08 04:44:43;;;;;;;13.77;9.15;;;;;;;;;;4815944;29;20050;-79
2022/06/08 04:47:16;;;;;;;12.38;9.98;;;;;;;;;;4815486;29;20573;-79
2022/06/08 04:54:00;;;;;;;10.23;9.00;;;;;;;;;;4819257;29;20049;-78
2022/06/08 04:57:08;;;;;;;10.32;9.30;;;;;;;;;;4822355;29;20066;-79
2022/06/08 05:00:05;;;;;;;9.48;8.57;;;;;;;;;;4804770;29;20233;-79
2022/06/08 05:02:46;;;;;;;8.00;7.30;;;;;;;;;;4816205;29;20073;-79
2022/06/08 05:05:23;;;;;;;7.22;6.72;;;;;;;;;;4823901;29;20202;-80
2022/06/08 05:07:52;;;;;;;6.75;6.25;;;;;;;;;;4816231;29;20050;-80
2022/06/08 05:10:20;;;;;;;6.95;6.38;;;;;;;;;;4816219;29;20057;-79
2022/06/08 05:12:49;;;;;;;7.72;6.35;;;;;;;;;;4818644;29;20578;-79
2022/06/08 05:15:20;;;;;;;6.55;5.85;;;;;;;;;;4815785;29;20457;-79
2022/06/08 05:18:36;;;;;;;;;;;;;;;;;;;;;
2022/06/08 05:21:35;;;;;;;5.38;4.80;;;;;;;;;;4835496;29;20053;-79
2022/06/08 05:24:15;;;;;;;6.35;4.85;;;;;;;;;;4819493;29;20084;-79
2022/06/08 05:26:51;;;;;;;5.25;4.75;;;;;;;;;;4835485;29;20046;-79
2022/06/08 05:29:19;;;;;;;4.38;4.00;;;;;;;;;;4804386;29;20511;-80
2022/06/08 05:31:55;;;;;;;;;;;;;;;;;;4786169;29;20350;-79
2022/06/08 05:34:43;;;;;;;4.65;3.75;;;;;;;;;;4786567;29;19993;-79
2022/06/08 05:37:15;;;;;;;5.15;3.38;;;;;;;;;;4787120;29;20237;-80
2022/06/08 05:39:43;;;;;;;3.05;2.83;;;;;;;;;;4812460;29;20057;-80
2022/06/08 05:42:10;;;;;;;3.08;2.88;;;;;;;;;;4834530;29;20041;-79
2022/06/08 05:45:35;;;;;;;3.00;2.88;;;;;;;;;;4822051;29;20060;-79
2022/06/08 05:48:20;;;;;;;3.00;2.78;;;;;;;;;;4821868;29;20052;-79
2022/06/08 05:52:11;;;;;;;2.72;2.53;;;;;;;;;;4827578;29;20081;-80
2022/06/08 05:55:37;;;;;;;2.22;2.05;;;;;;;;;;4822398;29;20554;-80
2022/06/08 05:58:17;;;;;;;4.00;2.40;;;;;;;;;;4819175;29;20061;-80
2022/06/08 06:01:06;;;;;;;4.65;2.50;;;;;;;;;;4813577;29;20060;-80
2022/06/08 06:04:56;;;;;;;2.63;2.42;;;;;;;;;;4837070;29;20060;-79
2022/06/08 06:08:27;;;;;;;4.70;2.20;;;;;;;;;;4831075;29;20423;-79
2022/06/08 06:11:52;;;;;;;;;;;;;;;;;;4753836;29;20524;-79
2022/06/08 06:15:23;;;;;;;2.42;2.20;;;;;;;;;;4760052;29;19936;-80
2022/06/08 06:18:11;;;;;;;2.40;2.15;;;;;;;;;;4762949;29;20468;-79
2022/06/08 06:21:00;;;;;;;2.47;2.28;;;;;;;;;;4770252;29;20054;-80
2022/06/08 06:24:50;;;;;;;3.15;2.50;;;;;;;;;;4783231;29;20528;-80
2022/06/08 06:28:15;;;;;;;2.55;2.28;;;;;;;;;;4790727;29;20128;-79
2022/06/08 06:31:42;;;;;;;2.97;2.78;;;;;;;;;;4756788;29;20050;-79
2022/06/08 06:42:30;;;;;;;2.38;2.17;;;;;;;;;;4781155;29;20116;-79
2022/06/08 06:45:21;;;;;;;2.30;2.10;;;;;;;;;;4796681;29;20066;-79
2022/06/08 06:48:01;;;;;;;3.50;2.35;;;;;;;;;;4787028;29;20189;-79
2022/06/08 06:50:32;;;;;;;4.40;2.10;;;;;;;;;;4805605;29;20059;-79
2022/06/08 06:53:05;;;;;;;3.42;2.13;;;;;;;;;;4816080;29;20054;-79
2022/06/08 06:55:40;;;;;;;3.17;2.63;;;;;;;;;;4830254;29;20052;-79
2022/06/08 06:58:18;;;;;;;2.67;2.47;;;;;;;;;;4824432;29;20179;-79
2022/06/08 07:00:48;;;;;;;2.75;2.55;;;;;;;;;;4839382;29;20378;-80
2022/06/08 07:03:22;;;;;;;3.22;2.50;;;;;;;;;;4809912;29;20053;-79
2022/06/08 07:05:56;;;;;;;3.72;2.65;;;;;;;;;;4820576;29;20109;-79
2022/06/08 07:08:24;;;;;;;5.25;2.70;;;;;;;;;;4828580;29;20068;-79
2022/06/08 07:13:41;;;;;;;2.58;2.45;;;;;;;;;;4819029;29;20050;-79
2022/06/08 07:16:10;;;;;;;3.10;2.90;;;;;;;;;;4818636;29;20131;-79
2022/06/08 07:18:38;;;;;;;3.10;2.90;;;;;;;;;;4791127;29;20102;-79
2022/06/08 07:21:06;;;;;;;3.83;2.90;;;;;;;;;;4831322;29;20142;-79
2022/06/08 07:23:34;;;;;;;3.00;2.80;;;;;;;;;;4822138;29;20072;-79
2022/06/08 07:26:01;;;;;;;3.40;3.20;;;;;;;;;;4840097;29;20136;-79
2022/06/08 07:28:29;;;;;;;4.03;3.63;;;;;;;;;;4837806;29;20464;-79
2022/06/08 07:31:00;;;;;;;3.25;3.03;;;;;;;;;;4806497;29;20073;-79
2022/06/08 07:33:28;;;;;;;6.80;3.25;;;;;;;;;;4837754;29;20038;-79
2022/06/08 07:35:57;;;;;;;4.72;3.20;;;;;;;;;;4806461;29;20224;-79
2022/06/08 07:38:24;;;;;;;4.10;3.15;;;;;;;;;;4849574;24;20115;-80
2022/06/08 07:40:52;;;;;;;4.72;3.70;;;;;;;;;;4861801;29;20060;-80
2022/06/08 07:43:21;;;;;;;3.70;3.40;;;;;;;;;;4831932;29;20080;-80
2022/06/08 07:45:48;;;;;;;4.75;3.50;;;;;;;;;;4855275;29;20502;-79
2022/06/08 07:51:02;;;;;;;4.47;4.15;;;;;;;;;;4840693;29;20062;-80
2022/06/08 07:53:30;;;;;;;3.80;3.50;;;;;;;;;;4855346;29;20049;-80
2022/06/08 07:55:57;;;;;;;4.32;4.03;;;;;;;;;;4860334;29;20489;-80
2022/06/08 07:58:35;;;;;;;6.45;3.53;;;;;;;;;;4847045;29;20451;-80
2022/06/08 08:01:02;;;;;;;3.95;3.65;;;;;;;;;;4829512;29;20057;-77
2022/06/08 08:03:30;;;;;;;5.07;3.80;;;;;;;;;;4841679;29;20155;-77
2022/06/08 08:05:57;;;;;;;4.10;3.80;;;;;;;;;;4834532;29;20109;-77
2022/06/08 08:08:24;;;;;;;3.83;3.63;;;;;;;;;;4843579;29;20124;-77
2022/06/08 08:10:52;;;;;;;4.68;4.20;;;;;;;;;;4850894;29;20068;-78
2022/06/08 08:13:20;;;;;;;5.47;4.32;;;;;;;;;;4855042;29;20283;-77
2022/06/08 08:15:49;;;;;;;5.38;4.10;;;;;;;;;;4853679;29;20037;-78
2022/06/08 08:18:16;;;;;;;4.60;3.65;;;;;;;;;;4859708;29;20045;-78
2022/06/08 08:20:44;;;;;;;4.20;3.90;;;;;;;;;;4855554;29;20384;-77
2022/06/08 08:23:11;;;;;;;4.25;3.85;;;;;;;;;;4846448;29;20101;-78
2022/06/08 08:25:38;;;;;;;4.25;3.92;;;;;;;;;;4856921;29;20046;-79
2022/06/08 08:28:07;;;;;;;5.40;5.00;;;;;;;;;;4844873;29;20047;-78
2022/06/08 08:30:35;;;;;;;4.32;4.03;;;;;;;;;;4847050;29;20136;-79
2022/06/08 08:33:03;;;;;;;4.00;3.72;;;;;;;;;;4839711;29;20061;-79
2022/06/08 08:35:30;;;;;;;3.88;3.60;;;;;;;;;;4858731;29;20386;-80
2022/06/08 08:37:59;;;;;;;4.22;3.83;;;;;;;;;;4844095;29;20053;-79
2022/06/08 08:40:30;;;;;;;4.30;3.97;;;;;;;;;;4863784;29;20053;-80
2022/06/08 08:43:00;;;;;;;4.30;3.90;;;;;;;;;;4854297;29;20048;-80
2022/06/08 08:45:31;;;;;;;3.63;3.38;;;;;;;;;;4849628;29;20053;-79
2022/06/08 08:48:04;;;;;;;4.10;3.80;;;;;;;;;;4863054;29;20045;-80
2022/06/08 08:50:51;;;;;;;3.88;3.50;;;;;;;;;;4852524;29;20093;-80
2022/06/08 08:53:21;;;;;;;3.53;3.22;;;;;;;;;;4844733;29;20078;-80
2022/06/08 08:55:58;;;;;;;3.27;3.07;;;;;;;;;;4865074;29;20060;-81
2022/06/08 08:58:27;;;;;;;3.70;3.40;;;;;;;;;;4864067;29;20060;-80
2022/06/08 09:00:57;;;;;;;3.80;3.50;;;;;;;;;;4834457;29;20050;-79
2022/06/08 09:03:25;;;;;;;3.70;3.40;;;;;;;;;;4834875;29;20038;-79
2022/06/08 09:05:56;;;;;;;6.90;3.10;;;;;;;;;;4857204;29;20127;-80
2022/06/08 09:08:24;;;;;;;4.90;4.53;;;;;;;;;;4848227;29;20065;-80
2022/06/08 09:10:58;;;;;;;3.80;3.53;;;;;;;;;;4849887;29;20049;-80
2022/06/08 09:13:30;;;;;;;3.72;3.38;;;;;;;;;;4859956;29;20084;-80
2022/06/08 09:15:59;;;;;;;3.97;3.67;;;;;;;;;;4862272;29;20053;-80
2022/06/08 09:18:30;;;;;;;3.75;3.45;;;;;;;;;;4858293;29;20255;-79
2022/06/08 09:20:58;;;;;;;4.63;3.40;;;;;;;;;;4861404;29;20438;-80
2022/06/08 09:23:32;;;;;;;3.40;3.10;;;;;;;;;;4851805;29;20117;-79
2022/06/08 09:26:15;;;;;;;3.05;2.83;;;;;;;;;;4849929;29;20109;-81
2022/06/08 09:28:43;;;;;;;3.38;3.17;;;;;;;;;;4856157;29;20053;-81
2022/06/08 09:31:24;;;;;;;3.53;3.22;;;;;;;;;;4834976;29;20054;-80
2022/06/08 09:34:03;;;;;;;4.82;2.72;;;;;;;;;;4864865;29;20499;-81
2022/06/08 09:36:30;;;;;;;2.63;2.45;;;;;;;;;;4865983;29;20045;-80
2022/06/08 09:38:58;;;;;;;1.92;1.90;;;;;;;;;;4856396;29;20045;-78
2022/06/08 09:41:29;;;;;;;3.70;2.28;;;;;;;;;;4838850;29;20101;-78
2022/06/08 09:43:57;;;;;;;2.88;2.20;;;;;;;;;;4838372;29;20049;-79
2022/06/08 09:52:35;;;;;;;2.90;2.38;;;;;;;;;;4838399;29;20109;-80
2022/06/08 09:55:09;;;;;;;2.53;2.42;;;;;;;;;;4818167;29;20161;-79
2022/06/08 09:57:42;;;;;;;1.90;1.80;;;;;;;;;;4845216;29;20053;-79
2022/06/08 10:00:17;;;;;;;2.90;2.00;;;;;;;;;;4854537;29;20125;-79
2022/06/08 10:03:05;;;;;;;3.38;2.03;;;;;;;;;;4839620;29;20064;-79
2022/06/08 10:05:38;;;;;;;3.03;2.40;;;;;;;;;;4845209;29;20046;-79
2022/06/08 10:08:06;;;;;;;2.75;2.30;;;;;;;;;;4860455;29;20065;-81
2022/06/08 10:10:35;;;;;;;2.92;2.40;;;;;;;;;;4863539;29;20220;-80
2022/06/08 10:13:09;;;;;;;2.17;2.08;;;;;;;;;;4857655;29;20164;-79
2022/06/08 10:15:39;;;;;;;2.28;2.08;;;;;;;;;;4858183;29;20517;-79
2022/06/08 10:18:16;;;;;;;2.22;2.08;;;;;;;;;;4859072;29;20057;-79
2022/06/08 10:20:49;;;;;;;2.00;1.70;;;;;;;;;;4843132;29;20091;-80
2022/06/08 10:23:35;;;;;;;2.00;1.90;;;;;;;;;;4845608;29;20045;-79
2022/06/08 10:26:07;;;;;;;3.90;2.00;;;;;;;;;;4845974;29;20624;-80
2022/06/08 10:28:53;;;;;;;1.88;1.80;;;;;;;;;;4858385;29;20049;-80
2022/06/08 10:31:21;;;;;;;1.80;1.70;;;;;;;;;;4835674;29;20073;-79
2022/06/08 10:33:59;;;;;;;12.02;1.73;;;;;;;;;;4828423;29;20061;-80
2022/06/08 10:36:35;;;;;;;2.47;1.85;;;;;;;;;;4840022;29;20053;-80
2022/06/08 10:39:04;;;;;;;2.10;2.00;;;;;;;;;;4859859;29;20065;-80
2022/06/08 10:44:42;;;;;;;2.33;1.88;;;;;;;;;;4855959;29;20391;-81
2022/06/08 10:47:13;;;;;;;2.30;2.20;;;;;;;;;;4847580;29;20065;-80
2022/06/08 10:49:40;;;;;;;1.80;1.70;;;;;;;;;;4853682;29;20073;-80
2022/06/08 10:52:20;;;;;;;5.05;2.10;;;;;;;;;;4864270;29;20053;-80
2022/06/08 10:54:54;;;;;;;1.90;1.70;;;;;;;;;;4871781;29;20121;-80
2022/06/08 10:57:32;;;;;;;2.50;1.73;;;;;;;;;;4854759;29;20548;-80
2022/06/08 11:00:18;;;;;;;2.17;2.00;;;;;;;;;;4837420;29;20510;-79
2022/06/08 11:02:52;;;;;;;2.00;1.83;;;;;;;;;;4854420;29;20048;-80
2022/06/08 11:05:34;;;;;;;1.60;1.50;;;;;;;;;;4847640;29;20316;-80
2022/06/08 11:08:02;;;;;;;1.67;1.58;;;;;;;;;;4873806;29;20049;-80
2022/06/08 11:10:49;;;;;;;1.40;1.30;;;;;;;;;;4856924;29;20069;-80
2022/06/08 11:13:23;;;;;;;1.65;1.55;;;;;;;;;;4870185;29;20105;-79
2022/06/08 11:15:54;;;;;;;2.08;1.88;;;;;;;;;;4832342;29;20082;-79
2022/06/08 11:18:36;;;;;;;3.80;1.98;;;;;;;;;;4860012;29;20137;-79
2022/06/08 11:21:06;;;;;;;8.10;2.58;;;;;;;;;;4855271;29;20089;-80
2022/06/08 11:23:33;;;;;;;1.70;1.60;;;;;;;;;;4851289;29;20053;-80
2022/06/08 11:26:25;;;;;;;1.50;1.40;;;;;;;;;;4853329;29;20101;-80
2022/06/08 11:29:12;;;;;;;1.63;1.50;;;;;;;;;;4871084;29;20045;-80
2022/06/08 11:31:39;;;;;;;1.80;1.30;;;;;;;;;;4867930;29;20037;-80
2022/06/08 11:34:21;;;;;;;1.70;1.55;;;;;;;;;;4871464;29;20060;-80
2022/06/08 11:37:12;;;;;;;1.55;1.45;;;;;;;;;;4857209;29;20081;-80
2022/06/08 11:39:54;;;;;;;1.20;1.20;;;;;;;;;;4842762;29;20053;-80
2022/06/08 11:42:24;;;;;;;;;;;;;;;;;;4864010;29;20196;-79
2022/06/08 11:44:54;;;;;;;1.10;1.10;;;;;;;;;;4843503;29;20368;-80
2022/06/08 11:47:21;;;;;;;1.88;1.30;;;;;;;;;;4863824;29;20048;-79
2022/06/08 11:49:56;;;;;;;1.30;1.30;;;;;;;;;;4863927;29;20041;-80
2022/06/08 11:52:29;;;;;;;2.90;1.60;;;;;;;;;;4845425;29;20049;-80
2022/06/08 11:55:08;;;;;;;1.13;1.13;;;;;;;;;;4863871;29;20045;-80
2022/06/08 11:57:37;;;;;;;1.17;1.10;;;;;;;;;;4872543;29;20647;-80
2022/06/08 12:00:06;;;;;;;1.40;1.30;;;;;;;;;;4866706;29;20047;-80
2022/06/08 12:02:39;;;;;;;1.20;1.20;;;;;;;;;;4863478;29;20033;-80
2022/06/08 12:05:07;;;;;;;1.08;1.00;;;;;;;;;;4850792;29;20056;-80
2022/06/08 12:07:35;;;;;;;1.73;0.90;;;;;;;;;;4858607;29;20463;-80
2022/06/08 12:10:04;;;;;;;1.70;1.00;;;;;;;;;;4867096;29;20049;-80
2022/06/08 12:12:31;;;;;;;2.10;1.20;;;;;;;;;;4865886;29;20042;-79
2022/06/08 12:15:19;;;;;;;2.05;0.93;;;;;;;;;;4846258;29;20163;-79
2022/06/08 12:17:46;;;;;;;2.47;1.00;;;;;;;;;;4862575;29;20045;-80
2022/06/08 12:20:33;;;;;;;2.20;1.10;;;;;;;;;;4874037;29;20093;-80
2022/06/08 12:23:00;;;;;;;0.93;0.90;;;;;;;;;;4866476;29;20050;-80
2022/06/08 12:25:29;;;;;;;1.85;0.82;;;;;;;;;;4860753;29;20164;-80
2022/06/08 12:28:20;;;;;;;3.55;0.95;;;;;;;;;;4862939;29;20045;-80
2022/06/08 12:30:48;;;;;;;3.53;0.90;;;;;;;;;;4854587;29;20053;-80
2022/06/08 12:33:18;;;;;;;1.45;0.70;;;;;;;;;;4860122;29;20160;-80
2022/06/08 12:36:01;;;;;;;0.82;0.80;;;;;;;;;;4860937;29;20053;-80
2022/06/08 12:38:29;;;;;;;1.50;0.70;;;;;;;;;;4846863;29;20152;-80
2022/06/08 12:41:02;;;;;;;1.55;1.02;;;;;;;;;;4845631;29;20084;-80
2022/06/08 12:43:36;;;;;;;1.13;0.90;;;;;;;;;;4862199;29;20050;-80
2022/06/08 12:46:17;;;;;;;1.77;0.80;;;;;;;;;;4851123;29;20061;-80
2022/06/08 12:48:47;;;;;;;1.85;0.82;;;;;;;;;;4859598;29;20045;-80
2022/06/08 12:51:32;;;;;;;0.77;0.77;;;;;;;;;;4861474;29;20053;-80
2022/06/08 12:54:01;;;;;;;2.15;0.70;;;;;;;;;;4840280;29;20078;-80
2022/06/08 12:56:30;;;;;;;1.23;0.80;;;;;;;;;;4843575;29;20129;-80
2022/06/08 12:58:58;;;;;;;2.03;0.70;;;;;;;;;;4859514;29;20449;-80
2022/06/08 13:01:30;;;;;;;0.80;0.80;;;;;;;;;;4859359;29;20050;-80
2022/06/08 13:03:58;;;;;;;0.60;0.60;;;;;;;;;;4860707;29;20050;-80
2022/06/08 13:06:25;;;;;;;3.00;0.90;;;;;;;;;;4859689;29;20129;-80
2022/06/08 13:08:53;;;;;;;0.75;0.75;;;;;;;;;;4874083;29;20077;-79
2022/06/08 13:11:23;;;;;;;0.90;0.90;;;;;;;;;;4860874;29;20299;-80
2022/06/08 13:13:51;;;;;;;0.68;0.60;;;;;;;;;;4861351;29;20081;-80
2022/06/08 13:16:23;;;;;;;1.27;0.63;;;;;;;;;;4859402;29;20124;-80
2022/06/08 13:18:51;;;;;;;4.38;0.77;;;;;;;;;;4842008;29;20137;-80
2022/06/08 13:21:20;;;;;;;0.60;0.60;;;;;;;;;;4857393;29;20042;-80
2022/06/08 13:23:47;;;;;;;0.93;0.60;;;;;;;;;;4860609;29;20109;-80
2022/06/08 13:26:21;;;;;;;0.40;0.40;;;;;;;;;;4860568;29;20041;-80
2022/06/08 13:28:49;;;;;;;2.38;0.77;;;;;;;;;;4840938;29;20121;-80
2022/06/08 13:31:26;;;;;;;0.70;0.70;;;;;;;;;;4860779;29;20049;-80
2022/06/08 13:34:03;;;;;;;0.52;0.50;;;;;;;;;;4844055;29;20104;-80
2022/06/08 13:36:46;;;;;;;0.60;0.60;;;;;;;;;;4843348;29;20176;-80
2022/06/08 13:39:19;;;;;;;1.55;0.75;;;;;;;;;;4873909;24;20060;-88
2022/06/08 13:42:02;;;;;;;3.05;0.68;;;;;;;;;;4815642;29;20608;-88
2022/06/08 13:44:54;;;;;;;0.50;0.50;;;;;;;;;;4830426;29;20081;-88
2022/06/08 13:47:36;;;;;;;0.47;0.43;;;;;;;;;;4826373;29;20064;-88
2022/06/08 13:50:07;;;;;;;2.75;0.50;;;;;;;;;;4810489;29;20508;-88
2022/06/08 13:52:41;;;;;;;0.60;0.60;;;;;;;;;;4813722;29;20054;-88
2022/06/08 13:55:29;;;;;;;0.57;0.57;;;;;;;;;;4827072;29;20145;-88
2022/06/08 13:58:04;;;;;;;1.15;0.90;;;;;;;;;;4813169;29;20054;-88
2022/06/08 14:00:39;;;;;;;0.60;0.60;;;;;;;;;;4842573;29;20058;-88
2022/06/08 14:03:15;;;;;;;1.35;0.65;;;;;;;;;;4840287;29;20048;-87
2022/06/08 14:13:01;;;;;;;1.55;0.70;;;;;;;;;;4838137;29;20082;-88
2022/06/08 14:15:44;;;;;;;0.77;0.40;;;;;;;;;;4846394;29;20050;-88
2022/06/08 14:18:25;;;;;;;1.58;0.60;;;;;;;;;;4839942;29;20038;-88
2022/06/08 14:20:56;;;;;;;0.80;0.70;;;;;;;;;;4839691;29;20501;-87
2022/06/08 14:23:26;;;;;;;2.42;0.50;;;;;;;;;;4841196;29;20094;-88
2022/06/08 14:25:54;;;;;;;2.03;0.40;;;;;;;;;;4824447;29;20085;-88
2022/06/08 14:28:45;;;;;;;0.63;0.60;;;;;;;;;;4840536;29;20063;-88
2022/06/08 14:31:21;;;;;;;2.38;0.65;;;;;;;;;;4824894;29;20065;-88
2022/06/08 14:34:02;;;;;;;1.58;0.60;;;;;;;;;;4809760;29;20050;-87
2022/06/08 14:40:27;;;;;;;0.60;0.50;;;;;;;;;;4840670;29;20535;-88
2022/06/08 14:42:55;;;;;;;0.60;0.60;;;;;;;;;;4834086;29;20453;-87
2022/06/08 14:45:56;;;;;;;1.88;0.60;;;;;;;;;;4831971;29;20042;-88
2022/06/08 14:48:31;;;;;;;0.80;0.52;;;;;;;;;;4829943;24;20042;-80
2022/06/08 14:51:00;;;;;;;0.50;0.50;;;;;;;;;;4821236;29;20038;-80
2022/06/08 14:53:28;;;;;;;1.00;0.50;;;;;;;;;;4804673;29;20153;-80
2022/06/08 14:58:43;;;;;;;1.05;0.60;;;;;;;;;;4834243;29;20046;-79
2022/06/08 15:01:17;;;;;;;0.55;0.55;;;;;;;;;;4820488;29;20054;-80
2022/06/08 15:03:46;;;;;;;0.60;0.60;;;;;;;;;;4821552;29;20148;-79
2022/06/08 15:06:14;;;;;;;0.52;0.52;;;;;;;;;;4822288;29;20465;-80
2022/06/08 15:08:42;;;;;;;0.40;0.40;;;;;;;;;;4844387;29;20129;-80
2022/06/08 15:14:12;;;;;;;0.65;0.65;;;;;;;;;;4824282;29;20107;-80
2022/06/08 15:16:40;;;;;;;1.50;0.60;;;;;;;;;;4800684;29;20134;-79
2022/06/08 15:19:12;;;;;;;0.52;0.52;;;;;;;;;;4820636;29;20070;-79
2022/06/08 15:22:12;;;;;;;0.65;0.63;;;;;;;;;;4814261;29;20368;-79
2022/06/08 15:24:40;;;;;;;0.70;0.70;;;;;;;;;;4851097;29;20050;-79
2022/06/08 15:27:14;;;;;;;1.98;0.65;;;;;;;;;;4816751;29;20042;-79
2022/06/08 15:29:41;;;;;;;0.73;0.60;;;;;;;;;;4791056;29;20047;-79
2022/06/08 15:32:13;;;;;;;0.65;0.65;;;;;;;;;;4807273;29;20048;-79
2022/06/08 15:34:44;;;;;;;0.85;0.65;;;;;;;;;;4822135;29;20403;-79
2022/06/08 15:37:23;;;;;;;0.68;0.55;;;;;;;;;;4805053;29;20083;-79
2022/06/08 15:39:51;;;;;;;0.60;0.60;;;;;;;;;;4814527;29;20111;-79
2022/06/08 15:42:18;;;;;;;0.60;0.60;;;;;;;;;;4803212;29;20566;-79
2022/06/08 15:44:47;;;;;;;2.05;0.70;;;;;;;;;;4800565;29;20125;-79
2022/06/08 15:47:16;;;;;;;1.05;0.80;;;;;;;;;;4817519;29;20578;-78
2022/06/08 15:49:46;;;;;;;2.60;1.00;;;;;;;;;;4821841;29;20095;-79
2022/06/08 15:52:16;;;;;;;0.90;0.90;;;;;;;;;;4805426;29;20034;-78
2022/06/08 15:54:52;;;;;;;0.70;0.70;;;;;;;;;;4803692;29;20103;-79
2022/06/08 15:57:26;;;;;;;3.67;0.82;;;;;;;;;;4787762;29;20065;-78
2022/06/08 16:00:05;;;;;;;0.77;0.60;;;;;;;;;;4789105;29;20102;-79
2022/06/08 16:02:33;;;;;;;0.68;0.68;;;;;;;;;;4826072;29;20101;-80
2022/06/08 16:05:00;;;;;;;2.28;0.70;;;;;;;;;;4807614;29;20073;-80
2022/06/08 16:07:28;;;;;;;0.95;0.77;;;;;;;;;;4817829;29;20133;-79
2022/06/08 16:09:55;;;;;;;0.60;0.60;;;;;;;;;;4788227;29;20568;-79
2022/06/08 16:12:25;;;;;;;0.70;0.68;;;;;;;;;;4819132;29;20472;-79
2022/06/08 16:14:53;;;;;;;0.80;0.50;;;;;;;;;;4822874;29;20089;-79
2022/06/08 16:17:21;;;;;;;1.48;0.70;;;;;;;;;;4820405;29;20049;-79
2022/06/08 16:19:49;;;;;;;0.60;0.60;;;;;;;;;;4803006;29;20468;-79
2022/06/08 16:22:27;;;;;;;0.52;0.52;;;;;;;;;;4825718;29;20175;-79
2022/06/08 16:24:55;;;;;;;3.25;0.55;;;;;;;;;;4805203;29;20065;-79
2022/06/08 16:27:23;;;;;;;0.88;0.70;;;;;;;;;;4817991;29;20156;-79
2022/06/08 16:29:50;;;;;;;5.07;0.70;;;;;;;;;;4816372;29;20138;-79
2022/06/08 16:32:18;;;;;;;0.52;0.52;;;;;;;;;;4818731;29;20054;-79
2022/06/08 16:34:45;;;;;;;1.00;0.70;;;;;;;;;;4820773;29;20058;-79
2022/06/08 16:37:13;;;;;;;0.65;0.65;;;;;;;;;;4817260;29;20401;-79
2022/06/08 16:39:40;;;;;;;0.90;0.70;;;;;;;;;;4787485;29;20054;-79
2022/06/08 16:42:07;;;;;;;0.70;0.70;;;;;;;;;;4809279;29;20485;-80
2022/06/08 16:44:35;;;;;;;2.47;0.60;;;;;;;;;;4805432;29;20046;-78
2022/06/08 16:47:02;;;;;;;0.55;0.55;;;;;;;;;;4833902;29;20106;-79
2022/06/08 16:49:30;;;;;;;0.70;0.70;;;;;;;;;;4836778;29;20045;-79
2022/06/08 16:51:58;;;;;;;0.88;0.77;;;;;;;;;;4836382;29;20132;-79
2022/06/08 16:54:26;;;;;;;1.70;1.00;;;;;;;;;;4820412;29;20058;-79
2022/06/08 16:59:41;;;;;;;3.15;0.82;;;;;;;;;;4802779;29;20050;-79
2022/06/08 17:02:19;;;;;;;2.28;0.70;;;;;;;;;;4805704;29;20077;-79
2022/06/08 17:04:47;;;;;;;1.38;0.60;;;;;;;;;;4789633;29;20054;-79
2022/06/08 17:07:17;;;;;;;1.65;0.90;;;;;;;;;;4820359;29;20049;-80
2022/06/08 17:09:46;;;;;;;1.70;1.00;;;;;;;;;;4851781;29;20088;-79
2022/06/08 17:12:14;;;;;;;1.35;0.80;;;;;;;;;;4820499;29;20048;-79
2022/06/08 17:14:42;;;;;;;0.70;0.70;;;;;;;;;;4819992;29;20149;-78
2022/06/08 17:17:11;;;;;;;1.98;0.93;;;;;;;;;;4849802;29;20058;-79
2022/06/08 17:19:38;;;;;;;3.50;0.88;;;;;;;;;;4821454;29;20050;-79
2022/06/08 17:22:06;;;;;;;1.85;1.00;;;;;;;;;;4821410;29;20057;-79
2022/06/08 17:24:34;;;;;;;2.42;2.22;;;;;;;;;;4821163;29;20046;-78
2022/06/08 17:27:01;;;;;;;2.92;2.40;;;;;;;;;;4836998;29;20053;-79